sensor_id;sensor_type;location;lat;lon;timestamp;P1;durP1;ratioP1;P2;durP2;ratioP2
76290;SDS011;65100;46.884;17.410;2024-02-16T00:00:03;23.08;;;11.05;;
76290;SDS011;65100;46.884;17.410;2024-02-16T00:02:29;23.43;;;12.30;;
76290;SDS011;65100;46.884;17.410;2024-02-16T00:04:54;21.42;;;10.57;;
76290;SDS011;65100;46.884;17.410;2024-02-16T00:07:20;20.93;;;10.03;;
76290;SDS011;65100;46.884;17.410;2024-02-16T00:09:45;22.00;;;11.23;;
76290;SDS011;65100;46.884;17.410;2024-02-16T00:12:11;20.55;;;10.70;;
76290;SDS011;65100;46.884;17.410;2024-02-16T00:14:36;21.10;;;11.40;;
76290;SDS011;65100;46.884;17.410;2024-02-16T00:17:02;22.65;;;11.63;;
76290;SDS011;65100;46.884;17.410;2024-02-16T00:19:29;24.73;;;10.93;;
76290;SDS011;65100;46.884;17.410;2024-02-16T00:21:54;23.55;;;10.65;;
76290;SDS011;65100;46.884;17.410;2024-02-16T00:24:20;23.70;;;10.20;;
76290;SDS011;65100;46.884;17.410;2024-02-16T00:26:46;20.52;;;9.23;;
76290;SDS011;65100;46.884;17.410;2024-02-16T00:29:11;23.93;;;10.80;;
76290;SDS011;65100;46.884;17.410;2024-02-16T00:31:37;22.03;;;11.17;;
76290;SDS011;65100;46.884;17.410;2024-02-16T00:34:03;22.23;;;9.50;;
76290;SDS011;65100;46.884;17.410;2024-02-16T00:36:29;21.40;;;10.75;;
76290;SDS011;65100;46.884;17.410;2024-02-16T00:38:55;21.27;;;10.95;;
76290;SDS011;65100;46.884;17.410;2024-02-16T00:41:22;22.98;;;11.27;;
76290;SDS011;65100;46.884;17.410;2024-02-16T00:43:48;18.33;;;10.33;;
76290;SDS011;65100;46.884;17.410;2024-02-16T00:46:14;24.85;;;11.63;;
76290;SDS011;65100;46.884;17.410;2024-02-16T00:48:40;23.20;;;11.10;;
76290;SDS011;65100;46.884;17.410;2024-02-16T00:51:05;21.80;;;10.50;;
76290;SDS011;65100;46.884;17.410;2024-02-16T00:53:30;24.10;;;11.07;;
76290;SDS011;65100;46.884;17.410;2024-02-16T00:55:56;21.23;;;10.33;;
76290;SDS011;65100;46.884;17.410;2024-02-16T00:58:21;24.50;;;11.23;;
76290;SDS011;65100;46.884;17.410;2024-02-16T01:00:47;21.73;;;11.47;;
76290;SDS011;65100;46.884;17.410;2024-02-16T01:03:12;19.60;;;10.73;;
76290;SDS011;65100;46.884;17.410;2024-02-16T01:05:38;18.57;;;9.73;;
76290;SDS011;65100;46.884;17.410;2024-02-16T01:08:05;21.75;;;11.25;;
76290;SDS011;65100;46.884;17.410;2024-02-16T01:10:31;20.02;;;9.80;;
76290;SDS011;65100;46.884;17.410;2024-02-16T01:12:56;18.93;;;9.47;;
76290;SDS011;65100;46.884;17.410;2024-02-16T01:15:21;20.80;;;10.93;;
76290;SDS011;65100;46.884;17.410;2024-02-16T01:17:47;23.33;;;9.60;;
76290;SDS011;65100;46.884;17.410;2024-02-16T01:20:12;21.25;;;10.40;;
76290;SDS011;65100;46.884;17.410;2024-02-16T01:22:39;20.63;;;9.50;;
76290;SDS011;65100;46.884;17.410;2024-02-16T01:25:05;20.33;;;10.20;;
76290;SDS011;65100;46.884;17.410;2024-02-16T01:27:31;21.77;;;9.52;;
76290;SDS011;65100;46.884;17.410;2024-02-16T01:29:57;20.40;;;10.00;;
76290;SDS011;65100;46.884;17.410;2024-02-16T01:32:22;19.60;;;9.40;;
76290;SDS011;65100;46.884;17.410;2024-02-16T01:34:48;22.47;;;10.33;;
76290;SDS011;65100;46.884;17.410;2024-02-16T01:37:14;21.10;;;10.50;;
76290;SDS011;65100;46.884;17.410;2024-02-16T01:39:40;21.87;;;11.13;;
76290;SDS011;65100;46.884;17.410;2024-02-16T01:42:05;19.45;;;9.77;;
76290;SDS011;65100;46.884;17.410;2024-02-16T01:44:31;21.90;;;10.60;;
76290;SDS011;65100;46.884;17.410;2024-02-16T01:46:56;22.50;;;10.40;;
76290;SDS011;65100;46.884;17.410;2024-02-16T01:49:22;19.97;;;9.73;;
76290;SDS011;65100;46.884;17.410;2024-02-16T01:51:48;20.15;;;9.60;;
76290;SDS011;65100;46.884;17.410;2024-02-16T01:54:14;21.17;;;10.53;;
76290;SDS011;65100;46.884;17.410;2024-02-16T01:56:42;21.05;;;9.82;;
76290;SDS011;65100;46.884;17.410;2024-02-16T01:59:08;22.38;;;10.60;;
76290;SDS011;65100;46.884;17.410;2024-02-16T02:01:34;19.87;;;10.20;;
76290;SDS011;65100;46.884;17.410;2024-02-16T02:04:00;22.08;;;10.90;;
76290;SDS011;65100;46.884;17.410;2024-02-16T02:06:25;21.97;;;11.07;;
76290;SDS011;65100;46.884;17.410;2024-02-16T02:08:51;24.38;;;11.38;;
76290;SDS011;65100;46.884;17.410;2024-02-16T02:11:16;21.47;;;10.23;;
76290;SDS011;65100;46.884;17.410;2024-02-16T02:13:42;21.40;;;11.03;;
76290;SDS011;65100;46.884;17.410;2024-02-16T02:16:07;23.13;;;10.65;;
76290;SDS011;65100;46.884;17.410;2024-02-16T02:18:35;21.30;;;10.77;;
76290;SDS011;65100;46.884;17.410;2024-02-16T02:21:00;23.15;;;11.48;;
76290;SDS011;65100;46.884;17.410;2024-02-16T02:23:26;20.40;;;10.10;;
76290;SDS011;65100;46.884;17.410;2024-02-16T02:25:51;22.00;;;10.73;;
76290;SDS011;65100;46.884;17.410;2024-02-16T02:28:16;23.17;;;11.17;;
76290;SDS011;65100;46.884;17.410;2024-02-16T02:30:43;22.52;;;10.18;;
76290;SDS011;65100;46.884;17.410;2024-02-16T02:33:10;23.35;;;10.57;;
76290;SDS011;65100;46.884;17.410;2024-02-16T02:35:37;21.10;;;10.90;;
76290;SDS011;65100;46.884;17.410;2024-02-16T02:38:03;23.17;;;10.00;;
76290;SDS011;65100;46.884;17.410;2024-02-16T02:40:29;22.00;;;10.88;;
76290;SDS011;65100;46.884;17.410;2024-02-16T02:42:55;20.67;;;10.20;;
76290;SDS011;65100;46.884;17.410;2024-02-16T02:45:20;18.90;;;9.00;;
76290;SDS011;65100;46.884;17.410;2024-02-16T02:47:46;21.77;;;9.53;;
76290;SDS011;65100;46.884;17.410;2024-02-16T02:50:11;18.90;;;8.83;;
76290;SDS011;65100;46.884;17.410;2024-02-16T02:52:37;20.40;;;10.38;;
76290;SDS011;65100;46.884;17.410;2024-02-16T02:55:03;21.47;;;10.57;;
76290;SDS011;65100;46.884;17.410;2024-02-16T02:57:28;22.52;;;10.20;;
76290;SDS011;65100;46.884;17.410;2024-02-16T03:00:02;19.60;;;9.57;;
76290;SDS011;65100;46.884;17.410;2024-02-16T03:02:31;20.95;;;9.90;;
76290;SDS011;65100;46.884;17.410;2024-02-16T03:04:57;21.30;;;10.10;;
76290;SDS011;65100;46.884;17.410;2024-02-16T03:07:22;20.45;;;10.40;;
76290;SDS011;65100;46.884;17.410;2024-02-16T03:09:48;20.37;;;9.37;;
76290;SDS011;65100;46.884;17.410;2024-02-16T03:12:13;19.77;;;9.47;;
76290;SDS011;65100;46.884;17.410;2024-02-16T03:14:38;21.00;;;10.67;;
76290;SDS011;65100;46.884;17.410;2024-02-16T03:17:04;19.57;;;9.50;;
76290;SDS011;65100;46.884;17.410;2024-02-16T03:19:29;23.88;;;10.30;;
76290;SDS011;65100;46.884;17.410;2024-02-16T03:21:55;19.90;;;9.47;;
76290;SDS011;65100;46.884;17.410;2024-02-16T03:24:20;20.70;;;10.03;;
76290;SDS011;65100;46.884;17.410;2024-02-16T03:26:47;19.63;;;9.43;;
76290;SDS011;65100;46.884;17.410;2024-02-16T03:29:13;21.30;;;9.63;;
76290;SDS011;65100;46.884;17.410;2024-02-16T03:31:39;23.47;;;10.73;;
76290;SDS011;65100;46.884;17.410;2024-02-16T03:34:04;22.40;;;10.25;;
76290;SDS011;65100;46.884;17.410;2024-02-16T03:36:29;21.83;;;9.97;;
76290;SDS011;65100;46.884;17.410;2024-02-16T03:38:55;22.33;;;10.35;;
76290;SDS011;65100;46.884;17.410;2024-02-16T03:41:21;20.27;;;8.63;;
76290;SDS011;65100;46.884;17.410;2024-02-16T03:43:48;20.05;;;8.90;;
76290;SDS011;65100;46.884;17.410;2024-02-16T03:46:14;20.02;;;9.50;;
76290;SDS011;65100;46.884;17.410;2024-02-16T03:48:40;21.23;;;8.63;;
76290;SDS011;65100;46.884;17.410;2024-02-16T03:51:05;21.33;;;9.83;;
76290;SDS011;65100;46.884;17.410;2024-02-16T03:53:31;22.42;;;10.35;;
76290;SDS011;65100;46.884;17.410;2024-02-16T03:55:57;20.02;;;9.00;;
76290;SDS011;65100;46.884;17.410;2024-02-16T03:58:23;20.27;;;9.17;;
76290;SDS011;65100;46.884;17.410;2024-02-16T04:00:49;19.77;;;9.18;;
76290;SDS011;65100;46.884;17.410;2024-02-16T04:03:15;18.83;;;9.47;;
76290;SDS011;65100;46.884;17.410;2024-02-16T04:05:42;21.30;;;9.52;;
76290;SDS011;65100;46.884;17.410;2024-02-16T04:08:07;19.20;;;9.27;;
76290;SDS011;65100;46.884;17.410;2024-02-16T04:10:33;19.93;;;9.97;;
76290;SDS011;65100;46.884;17.410;2024-02-16T04:12:59;20.70;;;9.52;;
76290;SDS011;65100;46.884;17.410;2024-02-16T04:15:25;21.58;;;10.50;;
76290;SDS011;65100;46.884;17.410;2024-02-16T04:17:51;19.58;;;9.35;;
76290;SDS011;65100;46.884;17.410;2024-02-16T04:20:17;18.53;;;8.50;;
76290;SDS011;65100;46.884;17.410;2024-02-16T04:22:43;18.88;;;8.52;;
76290;SDS011;65100;46.884;17.410;2024-02-16T04:25:08;18.70;;;9.97;;
76290;SDS011;65100;46.884;17.410;2024-02-16T04:27:34;18.83;;;9.27;;
76290;SDS011;65100;46.884;17.410;2024-02-16T04:30:00;22.03;;;10.30;;
76290;SDS011;65100;46.884;17.410;2024-02-16T04:32:26;21.13;;;9.65;;
76290;SDS011;65100;46.884;17.410;2024-02-16T04:34:51;17.63;;;9.73;;
76290;SDS011;65100;46.884;17.410;2024-02-16T04:37:17;19.75;;;9.98;;
76290;SDS011;65100;46.884;17.410;2024-02-16T04:39:46;21.15;;;9.65;;
76290;SDS011;65100;46.884;17.410;2024-02-16T04:42:12;19.97;;;9.50;;
76290;SDS011;65100;46.884;17.410;2024-02-16T04:44:37;20.10;;;9.43;;
76290;SDS011;65100;46.884;17.410;2024-02-16T04:47:06;20.83;;;9.35;;
76290;SDS011;65100;46.884;17.410;2024-02-16T04:49:32;20.08;;;9.32;;
76290;SDS011;65100;46.884;17.410;2024-02-16T04:51:57;19.37;;;8.50;;
76290;SDS011;65100;46.884;17.410;2024-02-16T04:54:23;20.58;;;9.65;;
76290;SDS011;65100;46.884;17.410;2024-02-16T04:56:49;19.47;;;9.73;;
76290;SDS011;65100;46.884;17.410;2024-02-16T04:59:15;20.60;;;9.30;;
76290;SDS011;65100;46.884;17.410;2024-02-16T05:01:41;20.50;;;10.05;;
76290;SDS011;65100;46.884;17.410;2024-02-16T05:04:08;19.30;;;9.52;;
76290;SDS011;65100;46.884;17.410;2024-02-16T05:06:38;18.97;;;9.17;;
76290;SDS011;65100;46.884;17.410;2024-02-16T05:09:06;21.92;;;9.50;;
76290;SDS011;65100;46.884;17.410;2024-02-16T05:11:32;18.57;;;8.47;;
76290;SDS011;65100;46.884;17.410;2024-02-16T05:13:58;18.00;;;9.23;;
76290;SDS011;65100;46.884;17.410;2024-02-16T05:16:23;20.27;;;9.17;;
76290;SDS011;65100;46.884;17.410;2024-02-16T05:18:49;18.65;;;8.90;;
76290;SDS011;65100;46.884;17.410;2024-02-16T05:21:15;17.70;;;7.97;;
76290;SDS011;65100;46.884;17.410;2024-02-16T05:23:41;19.35;;;8.80;;
76290;SDS011;65100;46.884;17.410;2024-02-16T05:26:06;19.20;;;9.00;;
76290;SDS011;65100;46.884;17.410;2024-02-16T05:28:32;20.10;;;9.63;;
76290;SDS011;65100;46.884;17.410;2024-02-16T05:30:57;20.03;;;8.50;;
76290;SDS011;65100;46.884;17.410;2024-02-16T05:33:29;18.88;;;9.10;;
76290;SDS011;65100;46.884;17.410;2024-02-16T05:35:54;17.67;;;8.20;;
76290;SDS011;65100;46.884;17.410;2024-02-16T05:38:23;18.73;;;8.98;;
76290;SDS011;65100;46.884;17.410;2024-02-16T05:41:00;18.90;;;8.32;;
76290;SDS011;65100;46.884;17.410;2024-02-16T05:43:26;23.20;;;10.23;;
76290;SDS011;65100;46.884;17.410;2024-02-16T05:45:51;30.75;;;14.35;;
76290;SDS011;65100;46.884;17.410;2024-02-16T05:48:20;20.47;;;9.67;;
76290;SDS011;65100;46.884;17.410;2024-02-16T05:50:46;20.17;;;9.43;;
76290;SDS011;65100;46.884;17.410;2024-02-16T05:53:12;20.57;;;10.10;;
76290;SDS011;65100;46.884;17.410;2024-02-16T05:55:37;19.35;;;8.90;;
76290;SDS011;65100;46.884;17.410;2024-02-16T05:58:03;18.50;;;8.97;;
76290;SDS011;65100;46.884;17.410;2024-02-16T06:00:34;18.92;;;8.93;;
76290;SDS011;65100;46.884;17.410;2024-02-16T06:02:59;23.23;;;12.00;;
76290;SDS011;65100;46.884;17.410;2024-02-16T06:05:25;19.23;;;9.43;;
76290;SDS011;65100;46.884;17.410;2024-02-16T06:07:51;19.33;;;8.65;;
76290;SDS011;65100;46.884;17.410;2024-02-16T06:10:16;19.83;;;9.43;;
76290;SDS011;65100;46.884;17.410;2024-02-16T06:13:04;19.50;;;9.52;;
76290;SDS011;65100;46.884;17.410;2024-02-16T06:15:31;18.97;;;8.37;;
76290;SDS011;65100;46.884;17.410;2024-02-16T06:17:58;18.40;;;9.48;;
76290;SDS011;65100;46.884;17.410;2024-02-16T06:20:25;20.05;;;10.25;;
76290;SDS011;65100;46.884;17.410;2024-02-16T06:22:50;19.90;;;9.33;;
76290;SDS011;65100;46.884;17.410;2024-02-16T06:25:15;20.30;;;10.33;;
76290;SDS011;65100;46.884;17.410;2024-02-16T06:27:41;19.05;;;9.15;;
76290;SDS011;65100;46.884;17.410;2024-02-16T06:30:06;19.83;;;9.53;;
76290;SDS011;65100;46.884;17.410;2024-02-16T06:32:37;22.58;;;10.07;;
76290;SDS011;65100;46.884;17.410;2024-02-16T06:35:03;19.23;;;9.90;;
76290;SDS011;65100;46.884;17.410;2024-02-16T06:37:28;21.08;;;10.55;;
76290;SDS011;65100;46.884;17.410;2024-02-16T06:39:54;23.80;;;12.30;;
76290;SDS011;65100;46.884;17.410;2024-02-16T06:42:19;25.13;;;12.40;;
76290;SDS011;65100;46.884;17.410;2024-02-16T06:44:45;21.88;;;9.93;;
76290;SDS011;65100;46.884;17.410;2024-02-16T06:47:10;21.73;;;10.37;;
76290;SDS011;65100;46.884;17.410;2024-02-16T06:49:36;23.10;;;10.87;;
76290;SDS011;65100;46.884;17.410;2024-02-16T06:52:02;24.27;;;12.00;;
76290;SDS011;65100;46.884;17.410;2024-02-16T06:54:27;20.92;;;9.88;;
76290;SDS011;65100;46.884;17.410;2024-02-16T06:56:53;20.73;;;9.57;;
76290;SDS011;65100;46.884;17.410;2024-02-16T06:59:19;25.17;;;11.73;;
76290;SDS011;65100;46.884;17.410;2024-02-16T07:01:44;21.63;;;10.75;;
76290;SDS011;65100;46.884;17.410;2024-02-16T07:04:11;23.80;;;11.20;;
76290;SDS011;65100;46.884;17.410;2024-02-16T07:06:37;21.40;;;10.77;;
76290;SDS011;65100;46.884;17.410;2024-02-16T07:09:03;25.25;;;11.60;;
76290;SDS011;65100;46.884;17.410;2024-02-16T07:11:28;22.77;;;10.57;;
76290;SDS011;65100;46.884;17.410;2024-02-16T07:13:56;21.63;;;11.68;;
76290;SDS011;65100;46.884;17.410;2024-02-16T07:16:24;24.27;;;12.20;;
76290;SDS011;65100;46.884;17.410;2024-02-16T07:18:49;23.13;;;12.17;;
76290;SDS011;65100;46.884;17.410;2024-02-16T07:21:15;28.77;;;14.73;;
76290;SDS011;65100;46.884;17.410;2024-02-16T07:23:44;29.50;;;14.10;;
76290;SDS011;65100;46.884;17.410;2024-02-16T07:26:09;32.43;;;16.10;;
76290;SDS011;65100;46.884;17.410;2024-02-16T07:28:34;27.27;;;13.70;;
76290;SDS011;65100;46.884;17.410;2024-02-16T07:31:00;28.08;;;15.40;;
76290;SDS011;65100;46.884;17.410;2024-02-16T07:33:25;32.90;;;17.20;;
76290;SDS011;65100;46.884;17.410;2024-02-16T07:35:53;31.15;;;16.92;;
76290;SDS011;65100;46.884;17.410;2024-02-16T07:38:19;29.50;;;15.50;;
76290;SDS011;65100;46.884;17.410;2024-02-16T07:40:46;31.75;;;15.07;;
76290;SDS011;65100;46.884;17.410;2024-02-16T07:43:12;28.38;;;15.60;;
76290;SDS011;65100;46.884;17.410;2024-02-16T07:45:41;26.07;;;14.20;;
76290;SDS011;65100;46.884;17.410;2024-02-16T07:48:06;28.02;;;13.88;;
76290;SDS011;65100;46.884;17.410;2024-02-16T07:50:32;25.80;;;14.48;;
76290;SDS011;65100;46.884;17.410;2024-02-16T07:52:58;26.02;;;13.98;;
76290;SDS011;65100;46.884;17.410;2024-02-16T07:55:26;26.37;;;13.43;;
76290;SDS011;65100;46.884;17.410;2024-02-16T07:57:52;22.92;;;12.43;;
76290;SDS011;65100;46.884;17.410;2024-02-16T08:00:17;25.73;;;12.67;;
76290;SDS011;65100;46.884;17.410;2024-02-16T08:02:43;21.70;;;10.85;;
76290;SDS011;65100;46.884;17.410;2024-02-16T08:05:12;23.03;;;12.07;;
76290;SDS011;65100;46.884;17.410;2024-02-16T08:07:40;24.08;;;12.68;;
76290;SDS011;65100;46.884;17.410;2024-02-16T08:10:09;25.13;;;12.23;;
76290;SDS011;65100;46.884;17.410;2024-02-16T08:12:35;23.27;;;11.83;;
76290;SDS011;65100;46.884;17.410;2024-02-16T08:15:02;24.90;;;12.85;;
76290;SDS011;65100;46.884;17.410;2024-02-16T08:20:36;22.92;;;12.43;;
76290;SDS011;65100;46.884;17.410;2024-02-16T08:23:02;26.50;;;12.60;;
76290;SDS011;65100;46.884;17.410;2024-02-16T08:25:27;23.57;;;12.33;;
76290;SDS011;65100;46.884;17.410;2024-02-16T08:27:55;23.27;;;11.70;;
76290;SDS011;65100;46.884;17.410;2024-02-16T08:30:20;23.37;;;11.40;;
76290;SDS011;65100;46.884;17.410;2024-02-16T08:32:47;24.83;;;12.30;;
76290;SDS011;65100;46.884;17.410;2024-02-16T08:35:13;22.98;;;11.30;;
76290;SDS011;65100;46.884;17.410;2024-02-16T08:37:39;23.42;;;12.48;;
76290;SDS011;65100;46.884;17.410;2024-02-16T08:40:05;21.53;;;12.30;;
76290;SDS011;65100;46.884;17.410;2024-02-16T08:42:31;22.92;;;11.77;;
76290;SDS011;65100;46.884;17.410;2024-02-16T08:44:56;25.03;;;12.50;;
76290;SDS011;65100;46.884;17.410;2024-02-16T08:47:25;23.75;;;11.85;;
76290;SDS011;65100;46.884;17.410;2024-02-16T08:49:50;23.48;;;11.93;;
76290;SDS011;65100;46.884;17.410;2024-02-16T08:52:16;23.43;;;11.97;;
76290;SDS011;65100;46.884;17.410;2024-02-16T08:54:44;23.93;;;12.30;;
76290;SDS011;65100;46.884;17.410;2024-02-16T08:57:10;24.50;;;12.65;;
76290;SDS011;65100;46.884;17.410;2024-02-16T08:59:35;25.60;;;12.60;;
76290;SDS011;65100;46.884;17.410;2024-02-16T09:02:01;20.83;;;10.63;;
76290;SDS011;65100;46.884;17.410;2024-02-16T09:04:26;21.27;;;10.83;;
76290;SDS011;65100;46.884;17.410;2024-02-16T09:06:52;21.05;;;10.65;;
76290;SDS011;65100;46.884;17.410;2024-02-16T09:09:18;20.37;;;10.23;;
76290;SDS011;65100;46.884;17.410;2024-02-16T09:11:44;19.50;;;10.47;;
76290;SDS011;65100;46.884;17.410;2024-02-16T09:14:09;17.43;;;8.77;;
76290;SDS011;65100;46.884;17.410;2024-02-16T09:16:37;16.60;;;8.60;;
76290;SDS011;65100;46.884;17.410;2024-02-16T09:19:02;18.88;;;9.18;;
76290;SDS011;65100;46.884;17.410;2024-02-16T09:21:28;18.27;;;8.32;;
76290;SDS011;65100;46.884;17.410;2024-02-16T09:23:55;17.63;;;9.07;;
76290;SDS011;65100;46.884;17.410;2024-02-16T09:26:26;16.98;;;8.95;;
76290;SDS011;65100;46.884;17.410;2024-02-16T09:28:55;17.15;;;8.38;;
76290;SDS011;65100;46.884;17.410;2024-02-16T09:31:21;16.67;;;8.30;;
76290;SDS011;65100;46.884;17.410;2024-02-16T09:33:46;15.13;;;7.70;;
76290;SDS011;65100;46.884;17.410;2024-02-16T09:36:12;16.47;;;8.30;;
76290;SDS011;65100;46.884;17.410;2024-02-16T09:38:37;16.67;;;8.37;;
76290;SDS011;65100;46.884;17.410;2024-02-16T09:41:03;16.97;;;8.20;;
76290;SDS011;65100;46.884;17.410;2024-02-16T09:43:29;19.00;;;8.50;;
76290;SDS011;65100;46.884;17.410;2024-02-16T09:45:55;18.53;;;9.03;;
76290;SDS011;65100;46.884;17.410;2024-02-16T09:48:21;16.30;;;8.27;;
76290;SDS011;65100;46.884;17.410;2024-02-16T09:50:48;19.98;;;9.05;;
76290;SDS011;65100;46.884;17.410;2024-02-16T09:53:15;19.25;;;8.82;;
76290;SDS011;65100;46.884;17.410;2024-02-16T09:55:42;17.40;;;8.93;;
76290;SDS011;65100;46.884;17.410;2024-02-16T09:58:08;16.60;;;8.50;;
76290;SDS011;65100;46.884;17.410;2024-02-16T10:00:33;16.08;;;8.25;;
76290;SDS011;65100;46.884;17.410;2024-02-16T10:02:59;16.00;;;7.80;;
76290;SDS011;65100;46.884;17.410;2024-02-16T10:05:24;16.60;;;7.63;;
76290;SDS011;65100;46.884;17.410;2024-02-16T10:07:55;14.93;;;7.43;;
76290;SDS011;65100;46.884;17.410;2024-02-16T10:10:24;17.10;;;8.40;;
76290;SDS011;65100;46.884;17.410;2024-02-16T10:13:01;20.63;;;9.30;;
76290;SDS011;65100;46.884;17.410;2024-02-16T10:15:30;18.98;;;8.27;;
76290;SDS011;65100;46.884;17.410;2024-02-16T10:17:57;17.75;;;8.15;;
76290;SDS011;65100;46.884;17.410;2024-02-16T10:20:29;15.07;;;7.63;;
76290;SDS011;65100;46.884;17.410;2024-02-16T10:25:47;18.23;;;8.55;;
76290;SDS011;65100;46.884;17.410;2024-02-16T10:28:12;18.97;;;8.40;;
76290;SDS011;65100;46.884;17.410;2024-02-16T10:30:39;17.23;;;8.13;;
76290;SDS011;65100;46.884;17.410;2024-02-16T10:33:10;16.27;;;7.93;;
76290;SDS011;65100;46.884;17.410;2024-02-16T10:35:37;16.73;;;7.88;;
76290;SDS011;65100;46.884;17.410;2024-02-16T10:38:04;16.10;;;8.07;;
76290;SDS011;65100;46.884;17.410;2024-02-16T10:40:38;17.37;;;8.77;;
76290;SDS011;65100;46.884;17.410;2024-02-16T10:43:07;13.88;;;6.97;;
76290;SDS011;65100;46.884;17.410;2024-02-16T10:45:34;16.63;;;8.50;;
76290;SDS011;65100;46.884;17.410;2024-02-16T10:48:04;17.73;;;9.30;;
76290;SDS011;65100;46.884;17.410;2024-02-16T10:50:31;13.32;;;6.60;;
76290;SDS011;65100;46.884;17.410;2024-02-16T10:52:59;16.23;;;7.67;;
76290;SDS011;65100;46.884;17.410;2024-02-16T10:55:29;14.85;;;7.45;;
76290;SDS011;65100;46.884;17.410;2024-02-16T10:57:56;14.85;;;7.18;;
76290;SDS011;65100;46.884;17.410;2024-02-16T11:00:22;16.88;;;7.43;;
76290;SDS011;65100;46.884;17.410;2024-02-16T11:02:51;13.57;;;7.27;;
76290;SDS011;65100;46.884;17.410;2024-02-16T11:05:36;15.18;;;7.85;;
76290;SDS011;65100;46.884;17.410;2024-02-16T11:08:14;14.30;;;7.53;;
76290;SDS011;65100;46.884;17.410;2024-02-16T11:10:41;15.60;;;7.90;;
76290;SDS011;65100;46.884;17.410;2024-02-16T11:13:22;13.70;;;7.07;;
76290;SDS011;65100;46.884;17.410;2024-02-16T11:15:56;15.52;;;7.90;;
76290;SDS011;65100;46.884;17.410;2024-02-16T11:18:28;17.40;;;7.78;;
76290;SDS011;65100;46.884;17.410;2024-02-16T11:20:54;15.27;;;7.72;;
76290;SDS011;65100;46.884;17.410;2024-02-16T11:23:30;15.80;;;7.90;;
76290;SDS011;65100;46.884;17.410;2024-02-16T11:26:05;15.45;;;8.30;;
76290;SDS011;65100;46.884;17.410;2024-02-16T11:28:36;14.63;;;7.25;;
76290;SDS011;65100;46.884;17.410;2024-02-16T11:31:03;14.95;;;8.20;;
76290;SDS011;65100;46.884;17.410;2024-02-16T11:33:29;13.70;;;7.17;;
76290;SDS011;65100;46.884;17.410;2024-02-16T11:35:55;15.15;;;7.25;;
76290;SDS011;65100;46.884;17.410;2024-02-16T11:38:22;17.50;;;8.57;;
76290;SDS011;65100;46.884;17.410;2024-02-16T11:40:55;16.15;;;8.10;;
76290;SDS011;65100;46.884;17.410;2024-02-16T11:43:21;16.08;;;8.10;;
76290;SDS011;65100;46.884;17.410;2024-02-16T11:45:51;15.87;;;8.13;;
76290;SDS011;65100;46.884;17.410;2024-02-16T11:48:20;15.63;;;8.02;;
76290;SDS011;65100;46.884;17.410;2024-02-16T11:50:50;16.92;;;7.95;;
76290;SDS011;65100;46.884;17.410;2024-02-16T11:53:24;16.98;;;8.00;;
76290;SDS011;65100;46.884;17.410;2024-02-16T11:55:50;13.60;;;7.27;;
76290;SDS011;65100;46.884;17.410;2024-02-16T11:58:16;15.83;;;7.80;;
76290;SDS011;65100;46.884;17.410;2024-02-16T12:00:47;15.65;;;7.93;;
76290;SDS011;65100;46.884;17.410;2024-02-16T12:03:19;15.88;;;8.27;;
76290;SDS011;65100;46.884;17.410;2024-02-16T12:05:51;16.90;;;7.85;;
76290;SDS011;65100;46.884;17.410;2024-02-16T12:08:17;14.88;;;7.80;;
76290;SDS011;65100;46.884;17.410;2024-02-16T12:10:44;14.63;;;8.00;;
76290;SDS011;65100;46.884;17.410;2024-02-16T12:13:09;15.52;;;7.72;;
76290;SDS011;65100;46.884;17.410;2024-02-16T12:15:37;13.13;;;7.37;;
76290;SDS011;65100;46.884;17.410;2024-02-16T12:18:03;14.95;;;7.97;;
76290;SDS011;65100;46.884;17.410;2024-02-16T12:20:29;14.37;;;7.47;;
76290;SDS011;65100;46.884;17.410;2024-02-16T12:22:56;16.13;;;7.68;;
76290;SDS011;65100;46.884;17.410;2024-02-16T12:25:24;14.70;;;7.45;;
76290;SDS011;65100;46.884;17.410;2024-02-16T12:27:50;15.30;;;7.78;;
76290;SDS011;65100;46.884;17.410;2024-02-16T12:30:16;14.57;;;7.23;;
76290;SDS011;65100;46.884;17.410;2024-02-16T12:32:41;13.77;;;7.43;;
76290;SDS011;65100;46.884;17.410;2024-02-16T12:35:07;14.80;;;7.23;;
76290;SDS011;65100;46.884;17.410;2024-02-16T12:37:33;14.35;;;7.88;;
76290;SDS011;65100;46.884;17.410;2024-02-16T12:40:00;14.48;;;7.50;;
76290;SDS011;65100;46.884;17.410;2024-02-16T12:42:26;14.50;;;7.90;;
76290;SDS011;65100;46.884;17.410;2024-02-16T12:44:52;14.50;;;7.20;;
76290;SDS011;65100;46.884;17.410;2024-02-16T12:47:17;18.17;;;8.33;;
76290;SDS011;65100;46.884;17.410;2024-02-16T12:49:42;16.17;;;7.45;;
76290;SDS011;65100;46.884;17.410;2024-02-16T12:52:08;17.03;;;7.27;;
76290;SDS011;65100;46.884;17.410;2024-02-16T12:54:33;13.17;;;6.23;;
76290;SDS011;65100;46.884;17.410;2024-02-16T12:56:59;14.75;;;7.00;;
76290;SDS011;65100;46.884;17.410;2024-02-16T12:59:25;15.27;;;7.80;;
76290;SDS011;65100;46.884;17.410;2024-02-16T13:01:51;14.63;;;6.80;;
76290;SDS011;65100;46.884;17.410;2024-02-16T13:04:17;15.25;;;7.85;;
76290;SDS011;65100;46.884;17.410;2024-02-16T13:06:46;16.08;;;7.30;;
76290;SDS011;65100;46.884;17.410;2024-02-16T13:09:12;14.13;;;7.20;;
76290;SDS011;65100;46.884;17.410;2024-02-16T13:11:37;17.02;;;8.13;;
76290;SDS011;65100;46.884;17.410;2024-02-16T13:14:04;13.13;;;6.90;;
76290;SDS011;65100;46.884;17.410;2024-02-16T13:16:30;14.38;;;7.80;;
76290;SDS011;65100;46.884;17.410;2024-02-16T13:18:55;16.07;;;7.50;;
76290;SDS011;65100;46.884;17.410;2024-02-16T13:21:21;20.67;;;9.83;;
76290;SDS011;65100;46.884;17.410;2024-02-16T13:23:46;19.77;;;9.25;;
76290;SDS011;65100;46.884;17.410;2024-02-16T13:26:12;16.43;;;8.17;;
76290;SDS011;65100;46.884;17.410;2024-02-16T13:28:38;15.70;;;8.15;;
76290;SDS011;65100;46.884;17.410;2024-02-16T13:31:03;25.07;;;11.67;;
76290;SDS011;65100;46.884;17.410;2024-02-16T13:33:29;19.00;;;8.30;;
76290;SDS011;65100;46.884;17.410;2024-02-16T13:35:54;16.63;;;7.60;;
76290;SDS011;65100;46.884;17.410;2024-02-16T13:38:20;17.53;;;8.73;;
76290;SDS011;65100;46.884;17.410;2024-02-16T13:40:45;21.17;;;9.33;;
76290;SDS011;65100;46.884;17.410;2024-02-16T13:43:11;16.70;;;8.33;;
76290;SDS011;65100;46.884;17.410;2024-02-16T13:45:47;15.85;;;7.43;;
76290;SDS011;65100;46.884;17.410;2024-02-16T13:48:16;15.98;;;8.10;;
76290;SDS011;65100;46.884;17.410;2024-02-16T13:50:49;14.83;;;8.00;;
76290;SDS011;65100;46.884;17.410;2024-02-16T13:53:15;15.35;;;7.00;;
76290;SDS011;65100;46.884;17.410;2024-02-16T13:55:42;14.95;;;7.60;;
76290;SDS011;65100;46.884;17.410;2024-02-16T13:58:11;15.05;;;7.10;;
76290;SDS011;65100;46.884;17.410;2024-02-16T14:00:37;19.27;;;8.13;;
76290;SDS011;65100;46.884;17.410;2024-02-16T14:03:04;16.00;;;7.60;;
76290;SDS011;65100;46.884;17.410;2024-02-16T14:05:30;16.10;;;7.55;;
76290;SDS011;65100;46.884;17.410;2024-02-16T14:07:56;15.68;;;7.47;;
76290;SDS011;65100;46.884;17.410;2024-02-16T14:10:22;15.77;;;7.00;;
76290;SDS011;65100;46.884;17.410;2024-02-16T14:12:47;14.67;;;6.90;;
76290;SDS011;65100;46.884;17.410;2024-02-16T14:15:12;14.53;;;6.97;;
76290;SDS011;65100;46.884;17.410;2024-02-16T14:17:41;15.35;;;7.40;;